createdAt,value
2022-08-21T00:00:14.597Z,18.49
2022-08-21T00:02:52.406Z,18.53
2022-08-21T00:05:19.330Z,18.50
2022-08-21T00:07:45.683Z,18.55
2022-08-21T00:10:12.531Z,18.57
2022-08-21T00:12:39.141Z,18.61
2022-08-21T00:15:06.686Z,18.60
2022-08-21T00:17:35.369Z,18.57
2022-08-21T00:20:01.793Z,18.44
2022-08-21T00:22:28.081Z,18.54
2022-08-21T00:24:54.380Z,18.51
2022-08-21T00:27:20.696Z,18.52
2022-08-21T00:29:46.994Z,18.42
2022-08-21T00:32:14.167Z,18.33
2022-08-21T00:34:40.486Z,18.41
2022-08-21T00:37:08.889Z,18.21
2022-08-21T00:39:35.237Z,18.31
2022-08-21T00:42:01.617Z,18.21
2022-08-21T00:44:27.937Z,18.14
2022-08-21T00:46:54.271Z,18.13
2022-08-21T00:49:20.934Z,18.24
2022-08-21T00:51:52.967Z,18.12
2022-08-21T00:54:20.073Z,18.12
2022-08-21T00:56:48.914Z,18.08
2022-08-21T00:59:17.120Z,18.01
2022-08-21T01:01:43.440Z,17.91
2022-08-21T01:04:09.762Z,18.02
2022-08-21T01:06:36.186Z,17.87
2022-08-21T01:09:03.265Z,17.75
2022-08-21T01:11:29.588Z,17.62
2022-08-21T01:13:56.102Z,17.66
2022-08-21T01:16:23.063Z,17.73
2022-08-21T01:18:50.124Z,17.60
2022-08-21T01:21:21.210Z,17.70
2022-08-21T01:23:49.406Z,17.62
2022-08-21T01:26:17.296Z,17.64
2022-08-21T01:28:49.666Z,17.69
2022-08-21T01:31:19.009Z,17.63
2022-08-21T01:33:52.953Z,17.81
2022-08-21T01:36:19.343Z,17.79
2022-08-21T01:38:45.676Z,17.77
2022-08-21T01:41:12.086Z,17.87
2022-08-21T01:43:39.930Z,17.85
2022-08-21T01:46:06.314Z,17.77
2022-08-21T01:48:32.667Z,17.83
2022-08-21T01:50:59.798Z,17.84
2022-08-21T01:53:27.741Z,17.78
2022-08-21T01:55:59.398Z,17.81
2022-08-21T01:58:25.711Z,17.73
2022-08-21T02:00:52.092Z,17.57
2022-08-21T02:03:23.278Z,17.69
2022-08-21T02:06:01.822Z,17.60
2022-08-21T02:08:28.977Z,17.41
2022-08-21T02:10:55.271Z,17.60
2022-08-21T02:13:22.179Z,17.37
2022-08-21T02:15:48.566Z,17.36
2022-08-21T02:18:14.961Z,17.34
2022-08-21T02:20:42.868Z,17.32
2022-08-21T02:23:09.977Z,17.30
2022-08-21T02:25:37.012Z,17.41
2022-08-21T02:28:05.098Z,17.24
2022-08-21T02:30:32.941Z,17.24
2022-08-21T02:32:59.402Z,17.36
2022-08-21T02:35:26.306Z,17.34
2022-08-21T02:37:55.600Z,17.37
2022-08-21T02:40:23.996Z,17.36
2022-08-21T02:42:50.629Z,17.21
2022-08-21T02:45:18.255Z,17.26
2022-08-21T02:47:50.939Z,17.31
2022-08-21T02:50:26.160Z,17.33
2022-08-21T02:52:55.029Z,17.17
2022-08-21T02:55:22.259Z,17.19
2022-08-21T02:57:49.171Z,17.09
2022-08-21T03:00:16.537Z,17.02
2022-08-21T03:02:43.051Z,16.88
2022-08-21T03:05:10.914Z,17.05
2022-08-21T03:07:37.865Z,17.06
2022-08-21T03:10:04.865Z,16.94
2022-08-21T03:12:31.180Z,17.00
2022-08-21T03:14:58.677Z,17.07
2022-08-21T03:17:29.791Z,17.17
2022-08-21T03:19:56.382Z,17.19
2022-08-21T03:22:22.698Z,17.20
2022-08-21T03:24:49.155Z,17.18
2022-08-21T03:27:16.321Z,17.20
2022-08-21T03:29:42.693Z,17.11
2022-08-21T03:32:11.819Z,17.11
2022-08-21T03:34:38.886Z,16.96
2022-08-21T03:37:06.427Z,16.97
2022-08-21T03:39:32.797Z,17.03
2022-08-21T03:42:00.818Z,17.11
2022-08-21T03:44:29.619Z,17.01
2022-08-21T03:46:56.341Z,17.00
2022-08-21T03:49:22.757Z,17.02
2022-08-21T03:51:49.601Z,16.99
2022-08-21T03:54:25.911Z,16.92
2022-08-21T03:56:55.426Z,16.96
2022-08-21T03:59:21.773Z,16.97
2022-08-21T04:01:54.293Z,16.92
2022-08-21T04:04:20.647Z,16.71
2022-08-21T04:06:47.001Z,16.82
2022-08-21T04:09:13.427Z,16.89
2022-08-21T04:11:39.814Z,16.72
2022-08-21T04:14:06.098Z,16.77
2022-08-21T04:16:32.429Z,16.62
2022-08-21T04:18:58.730Z,16.77
2022-08-21T04:21:25.023Z,16.52
2022-08-21T04:23:51.374Z,16.35
2022-08-21T04:26:17.903Z,16.48
2022-08-21T04:28:44.624Z,16.44
2022-08-21T04:31:11.017Z,16.35
2022-08-21T04:33:37.311Z,16.43
2022-08-21T04:36:04.201Z,16.30
2022-08-21T04:38:36.426Z,16.34
2022-08-21T04:41:03.064Z,16.51
2022-08-21T04:43:29.434Z,16.36
2022-08-21T04:45:55.782Z,16.48
2022-08-21T04:48:23.090Z,16.33
2022-08-21T04:51:02.164Z,16.20
2022-08-21T04:53:32.793Z,16.35
2022-08-21T04:56:02.000Z,16.33
2022-08-21T04:58:29.677Z,16.15
2022-08-21T05:00:57.282Z,16.27
2022-08-21T05:03:24.158Z,16.52
2022-08-21T05:05:50.532Z,16.53
2022-08-21T05:08:19.698Z,16.47
2022-08-21T05:10:46.195Z,16.52
2022-08-21T05:13:13.583Z,16.57
2022-08-21T05:15:40.610Z,16.69
2022-08-21T05:18:07.582Z,16.65
2022-08-21T05:20:35.365Z,16.87
2022-08-21T05:23:02.437Z,16.76
2022-08-21T05:25:28.790Z,16.71
2022-08-21T05:27:58.135Z,16.74
2022-08-21T05:30:27.252Z,16.88
2022-08-21T05:33:00.907Z,16.82
2022-08-21T05:35:28.372Z,16.93
2022-08-21T05:37:54.734Z,16.96
2022-08-21T05:40:23.231Z,16.70
2022-08-21T05:42:54.539Z,16.81
2022-08-21T05:45:41.392Z,16.72
2022-08-21T05:48:09.899Z,16.71
2022-08-21T05:50:37.323Z,16.63
2022-08-21T05:53:07.004Z,16.65
2022-08-21T05:55:34.409Z,16.65
2022-08-21T05:58:00.710Z,16.66
2022-08-21T06:00:27.069Z,16.77
2022-08-21T06:02:53.346Z,16.65
2022-08-21T06:05:36.459Z,16.64
2022-08-21T06:08:03.469Z,16.72
2022-08-21T06:10:30.649Z,16.56
2022-08-21T06:12:57.047Z,16.55
2022-08-21T06:15:23.585Z,16.64
2022-08-21T06:17:49.961Z,16.70
2022-08-21T06:20:16.264Z,16.72
2022-08-21T06:22:42.581Z,16.76
2022-08-21T06:25:10.235Z,16.90
2022-08-21T06:27:36.588Z,16.93
2022-08-21T06:30:03.581Z,16.65
2022-08-21T06:32:29.893Z,16.86
2022-08-21T06:34:56.232Z,16.84
2022-08-21T06:37:23.171Z,16.95
2022-08-21T06:39:49.685Z,16.89
2022-08-21T06:42:16.852Z,16.95
2022-08-21T06:44:43.930Z,17.07
2022-08-21T06:47:10.327Z,16.99
2022-08-21T06:49:37.097Z,17.18
2022-08-21T06:52:04.505Z,17.23
2022-08-21T06:54:31.669Z,17.24
2022-08-21T06:56:57.987Z,17.24
2022-08-21T06:59:24.294Z,17.42
2022-08-21T07:01:50.659Z,17.50
2022-08-21T07:04:17.042Z,17.49
2022-08-21T07:06:43.360Z,17.54
2022-08-21T07:09:10.823Z,17.63
2022-08-21T07:11:42.395Z,17.65
2022-08-21T07:14:20.370Z,17.73
2022-08-21T07:16:47.034Z,17.81
2022-08-21T07:19:13.540Z,17.77
2022-08-21T07:21:39.879Z,17.88
2022-08-21T07:24:06.255Z,17.97
2022-08-21T07:26:32.588Z,17.97
2022-08-21T07:28:58.874Z,17.79
2022-08-21T07:31:26.079Z,17.98
2022-08-21T07:33:52.418Z,18.02
2022-08-21T07:36:18.838Z,18.00
2022-08-21T07:38:45.944Z,18.06
2022-08-21T07:41:17.296Z,18.00
2022-08-21T07:43:45.947Z,18.02
2022-08-21T07:46:13.563Z,18.07
2022-08-21T07:48:40.355Z,18.18
2022-08-21T07:51:08.762Z,18.19
2022-08-21T07:53:36.578Z,18.20
2022-08-21T07:56:04.603Z,18.28
2022-08-21T07:58:31.809Z,18.21
2022-08-21T08:01:00.053Z,18.18
2022-08-21T08:03:29.133Z,18.25
2022-08-21T08:05:56.806Z,18.49
2022-08-21T08:08:23.128Z,18.39
2022-08-21T08:10:51.193Z,18.23
2022-08-21T08:13:17.592Z,18.23
2022-08-21T08:15:43.957Z,18.28
2022-08-21T08:18:10.268Z,18.40
2022-08-21T08:20:36.803Z,18.30
2022-08-21T08:23:03.357Z,18.51
2022-08-21T08:25:36.678Z,18.66
2022-08-21T08:28:03.688Z,18.71
2022-08-21T08:30:43.452Z,18.90
2022-08-21T08:33:09.991Z,19.02
2022-08-21T08:35:37.317Z,19.12
2022-08-21T08:38:05.537Z,19.13
2022-08-21T08:40:46.860Z,19.23
2022-08-21T08:43:14.466Z,19.32
2022-08-21T08:45:43.367Z,19.59
2022-08-21T08:48:14.234Z,19.54
2022-08-21T08:50:57.549Z,19.54
2022-08-21T08:53:32.986Z,19.59
2022-08-21T08:56:01.138Z,19.70
2022-08-21T08:58:32.956Z,19.67
2022-08-21T09:01:00.103Z,19.74
2022-08-21T09:03:27.563Z,19.73
2022-08-21T09:05:53.873Z,19.70
2022-08-21T09:08:35.548Z,19.80
2022-08-21T09:11:09.807Z,19.67
2022-08-21T09:13:55.065Z,19.75
2022-08-21T09:16:41.752Z,19.83
2022-08-21T09:19:28.844Z,19.71
2022-08-21T09:22:01.120Z,19.83
2022-08-21T09:24:39.049Z,19.89
2022-08-21T09:27:09.775Z,19.80
2022-08-21T09:29:40.934Z,19.97
2022-08-21T09:32:16.585Z,19.80
2022-08-21T09:34:56.156Z,19.83
2022-08-21T09:37:22.489Z,20.05
2022-08-21T09:39:49.038Z,19.87
2022-08-21T09:42:23.097Z,20.02
2022-08-21T09:44:49.445Z,19.96
2022-08-21T09:47:21.853Z,20.21
2022-08-21T09:49:50.285Z,19.92
2022-08-21T09:52:20.719Z,19.78
2022-08-21T09:54:47.714Z,19.92
2022-08-21T09:57:38.964Z,19.87
2022-08-21T10:00:21.628Z,19.81
2022-08-21T10:02:48.229Z,20.00
2022-08-21T10:05:23.806Z,20.12
2022-08-21T10:07:50.628Z,20.25
2022-08-21T10:10:24.884Z,20.19
2022-08-21T10:13:17.393Z,20.25
2022-08-21T10:16:02.397Z,20.17
2022-08-21T10:18:35.667Z,20.30
2022-08-21T10:21:06.524Z,20.49
2022-08-21T10:23:43.544Z,20.52
2022-08-21T10:26:28.675Z,20.65
2022-08-21T10:29:07.134Z,20.59
2022-08-21T10:31:42.825Z,20.67
2022-08-21T10:34:12.148Z,20.64
2022-08-21T10:36:58.460Z,20.53
2022-08-21T10:39:35.047Z,20.65
2022-08-21T10:42:05.640Z,20.67
2022-08-21T10:44:50.905Z,20.72
2022-08-21T10:47:22.454Z,20.72
2022-08-21T10:50:09.636Z,20.69
2022-08-21T10:52:47.846Z,20.76
2022-08-21T10:55:19.191Z,20.57
2022-08-21T10:57:48.795Z,20.68
2022-08-21T11:00:27.781Z,20.68
2022-08-21T11:02:54.526Z,20.65
2022-08-21T11:05:24.047Z,20.43
2022-08-21T11:08:06.800Z,20.49
2022-08-21T11:10:40.898Z,20.53
2022-08-21T11:13:23.233Z,20.75
2022-08-21T11:16:06.858Z,20.63
2022-08-21T11:18:40.956Z,20.52
2022-08-21T11:21:26.210Z,20.57
2022-08-21T11:24:04.393Z,20.50
2022-08-21T11:26:32.308Z,20.48
2022-08-21T11:29:08.102Z,20.21
2022-08-21T11:31:37.505Z,20.39
2022-08-21T11:34:25.607Z,20.21
2022-08-21T11:37:02.702Z,20.42
2022-08-21T11:39:37.961Z,20.40
2022-08-21T11:42:22.794Z,20.31
2022-08-21T11:45:08.302Z,20.31
2022-08-21T11:47:54.925Z,20.45
2022-08-21T11:50:35.766Z,20.52
2022-08-21T11:53:05.449Z,20.59
2022-08-21T11:55:44.033Z,20.57
2022-08-21T11:58:13.421Z,20.76
2022-08-21T12:00:56.894Z,20.70
2022-08-21T12:03:29.019Z,20.74
2022-08-21T12:06:05.060Z,20.73
2022-08-21T12:08:31.343Z,20.76
2022-08-21T12:11:06.661Z,20.78
2022-08-21T12:13:40.699Z,20.88
2022-08-21T12:16:16.643Z,21.00
2022-08-21T12:18:43.949Z,20.94
2022-08-21T12:21:28.888Z,20.97
2022-08-21T12:24:07.510Z,20.98
2022-08-21T12:26:35.702Z,21.06
2022-08-21T12:29:06.598Z,20.96
2022-08-21T12:31:32.938Z,20.88
2022-08-21T12:34:00.822Z,21.04
2022-08-21T12:36:43.338Z,20.87
2022-08-21T12:39:15.182Z,20.79
2022-08-21T12:41:56.972Z,20.76
2022-08-21T12:44:36.714Z,21.00
2022-08-21T12:47:04.966Z,20.89
2022-08-21T12:49:34.667Z,20.81
2022-08-21T12:52:17.872Z,20.78
2022-08-21T12:54:44.992Z,20.68
2022-08-21T12:57:25.344Z,20.87
2022-08-21T12:59:56.453Z,21.09
2022-08-21T13:02:43.787Z,20.90
2022-08-21T13:05:14.768Z,20.92
2022-08-21T13:07:44.854Z,20.77
2022-08-21T13:10:25.226Z,20.66
2022-08-21T13:12:55.054Z,20.58
2022-08-21T13:15:33.473Z,20.58
2022-08-21T13:18:03.281Z,20.38
2022-08-21T13:20:31.773Z,20.46
2022-08-21T13:22:59.300Z,20.44
2022-08-21T13:25:27.820Z,20.65
2022-08-21T13:27:58.735Z,20.69
2022-08-21T13:30:25.224Z,20.81
2022-08-21T13:32:53.470Z,20.85
2022-08-21T13:35:21.579Z,20.83
2022-08-21T13:37:49.103Z,20.91
2022-08-21T13:40:17.344Z,20.85
2022-08-21T13:42:45.860Z,20.90
2022-08-21T13:45:13.873Z,20.86
2022-08-21T13:47:40.345Z,20.84
2022-08-21T13:50:08.603Z,20.87
2022-08-21T13:52:45.930Z,20.92
2022-08-21T13:55:13.920Z,20.92
2022-08-21T13:57:40.487Z,20.89
2022-08-21T14:00:13.575Z,20.95
2022-08-21T14:02:41.798Z,20.96
2022-08-21T14:05:14.767Z,20.93
2022-08-21T14:07:43.285Z,20.93
2022-08-21T14:10:16.225Z,20.92
2022-08-21T14:12:51.329Z,20.99
2022-08-21T14:15:18.649Z,20.90
2022-08-21T14:17:45.998Z,20.91
2022-08-21T14:20:25.828Z,20.91
2022-08-21T14:22:52.674Z,20.89
2022-08-21T14:25:28.376Z,20.82
2022-08-21T14:27:54.738Z,20.79
2022-08-21T14:30:27.155Z,20.90
2022-08-21T14:32:54.575Z,20.81
2022-08-21T14:35:23.830Z,20.80
2022-08-21T14:37:52.023Z,20.77
2022-08-21T14:40:20.753Z,20.81
2022-08-21T14:42:47.476Z,20.79
2022-08-21T14:45:16.821Z,20.81
2022-08-21T14:47:44.699Z,20.79
2022-08-21T14:50:11.804Z,20.79
2022-08-21T14:52:38.271Z,20.78
2022-08-21T14:55:05.640Z,20.95
2022-08-21T14:57:32.396Z,20.84
2022-08-21T15:00:02.049Z,20.83
2022-08-21T15:02:28.748Z,20.53
2022-08-21T15:04:55.086Z,20.71
2022-08-21T15:07:21.521Z,20.74
2022-08-21T15:09:47.828Z,20.72
2022-08-21T15:12:14.893Z,20.74
2022-08-21T15:14:41.517Z,20.82
2022-08-21T15:17:09.822Z,20.86
2022-08-21T15:19:36.641Z,20.93
2022-08-21T15:22:03.605Z,20.96
2022-08-21T15:24:29.952Z,20.98
2022-08-21T15:26:57.222Z,21.00
2022-08-21T15:29:23.553Z,21.02
2022-08-21T15:31:53.405Z,21.00
2022-08-21T15:34:20.098Z,21.03
2022-08-21T15:36:46.792Z,21.06
2022-08-21T15:39:13.800Z,21.06
2022-08-21T15:41:40.630Z,21.08
2022-08-21T15:44:07.067Z,21.10
2022-08-21T15:46:33.564Z,21.12
2022-08-21T15:49:00.188Z,21.11
2022-08-21T15:51:26.583Z,21.12
2022-08-21T15:53:53.137Z,21.09
2022-08-21T15:56:26.694Z,21.09
2022-08-21T15:58:54.454Z,21.08
2022-08-21T16:01:21.474Z,21.03
2022-08-21T16:03:49.836Z,20.96
2022-08-21T16:06:17.245Z,20.92
2022-08-21T16:08:43.536Z,20.86
2022-08-21T16:11:10.894Z,20.95
2022-08-21T16:13:39.088Z,20.92
2022-08-21T16:16:06.222Z,20.83
2022-08-21T16:18:33.090Z,20.78
2022-08-21T16:20:59.541Z,20.84
2022-08-21T16:23:25.918Z,20.76
2022-08-21T16:25:52.500Z,20.72
2022-08-21T16:28:20.946Z,20.79
2022-08-21T16:30:49.561Z,20.68
2022-08-21T16:33:35.993Z,20.66
2022-08-21T16:36:03.634Z,20.62
2022-08-21T16:38:30.449Z,20.62
2022-08-21T16:40:57.711Z,20.55
2022-08-21T16:43:26.142Z,20.53
2022-08-21T16:45:53.478Z,20.53
2022-08-21T16:48:19.812Z,20.50
2022-08-21T16:50:50.785Z,20.46
2022-08-21T16:53:17.415Z,20.44
2022-08-21T16:55:43.943Z,20.40
2022-08-21T16:58:16.654Z,20.42
2022-08-21T17:00:43.276Z,20.47
2022-08-21T17:03:13.480Z,20.52
2022-08-21T17:05:39.761Z,20.64
2022-08-21T17:08:06.981Z,20.64
2022-08-21T17:10:33.273Z,20.64
2022-08-21T17:13:00.866Z,20.65
2022-08-21T17:15:29.608Z,20.66
2022-08-21T17:17:56.565Z,20.64
2022-08-21T17:20:23.005Z,20.63
2022-08-21T17:22:49.458Z,20.59
2022-08-21T17:25:16.140Z,20.58
2022-08-21T17:27:44.021Z,20.58
2022-08-21T17:30:11.176Z,20.60
2022-08-21T17:32:38.199Z,20.56
2022-08-21T17:35:05.301Z,20.52
2022-08-21T17:37:31.703Z,20.48
2022-08-21T17:39:58.135Z,20.43
2022-08-21T17:42:25.194Z,20.38
2022-08-21T17:44:51.682Z,20.37
2022-08-21T17:47:18.007Z,20.34
2022-08-21T17:49:44.295Z,20.33
2022-08-21T17:52:10.681Z,20.30
2022-08-21T17:54:37.050Z,20.27
2022-08-21T17:57:04.112Z,20.14
2022-08-21T17:59:30.558Z,20.17
2022-08-21T18:02:01.283Z,20.19
2022-08-21T18:04:30.781Z,20.14
2022-08-21T18:06:57.180Z,20.15
2022-08-21T18:09:27.816Z,20.10
2022-08-21T18:11:57.894Z,20.04
2022-08-21T18:14:27.188Z,19.97
2022-08-21T18:16:53.596Z,19.87
2022-08-21T18:19:21.844Z,19.83
2022-08-21T18:21:48.254Z,19.76
2022-08-21T18:24:15.092Z,19.69
2022-08-21T18:26:42.045Z,19.54
2022-08-21T18:29:09.998Z,19.51
2022-08-21T18:31:37.821Z,19.45
2022-08-21T18:34:08.551Z,19.35
2022-08-21T18:36:34.880Z,19.38
2022-08-21T18:39:25.682Z,19.22
2022-08-21T18:41:48.070Z,19.08
2022-08-21T18:44:16.016Z,18.97
2022-08-21T18:46:48.548Z,18.97
2022-08-21T18:49:14.878Z,19.02
2022-08-21T18:54:28.140Z,18.95
2022-08-21T18:56:55.273Z,18.91
2022-08-21T18:59:21.771Z,18.86
2022-08-21T19:01:48.392Z,18.80
2022-08-21T19:04:25.428Z,18.76
2022-08-21T19:07:01.111Z,18.73
2022-08-21T19:09:27.447Z,18.70
2022-08-21T19:11:54.157Z,18.63
2022-08-21T19:14:20.538Z,18.59
2022-08-21T19:16:50.015Z,18.54
2022-08-21T19:19:18.056Z,18.49
2022-08-21T19:21:45.157Z,18.44
2022-08-21T19:24:17.796Z,18.39
2022-08-21T19:26:45.013Z,18.36
2022-08-21T19:29:12.141Z,18.31
2022-08-21T19:31:43.383Z,18.26
2022-08-21T19:34:12.837Z,18.24
2022-08-21T19:36:42.980Z,18.19
2022-08-21T19:39:10.971Z,18.13
2022-08-21T19:41:38.995Z,18.01
2022-08-21T19:44:08.176Z,17.95
2022-08-21T19:46:36.030Z,17.96
2022-08-21T19:49:04.461Z,17.93
2022-08-21T19:51:33.940Z,17.92
2022-08-21T19:54:00.428Z,17.82
2022-08-21T19:56:29.927Z,17.71
2022-08-21T19:58:56.628Z,17.66
2022-08-21T20:01:24.072Z,17.57
2022-08-21T20:03:54.159Z,17.61
2022-08-21T20:06:22.100Z,17.51
2022-08-21T20:08:50.935Z,17.48
2022-08-21T20:11:20.245Z,17.46
2022-08-21T20:13:46.673Z,17.44
2022-08-21T20:16:15.252Z,17.42
2022-08-21T20:18:41.814Z,17.41
2022-08-21T20:21:08.552Z,17.43
2022-08-21T20:23:35.221Z,17.44
2022-08-21T20:26:09.898Z,17.44
2022-08-21T20:28:36.913Z,17.45
2022-08-21T20:31:06.610Z,17.51
2022-08-21T20:33:36.449Z,17.60
2022-08-21T20:36:02.933Z,17.55
2022-08-21T20:38:31.684Z,17.53
2022-08-21T20:40:58.195Z,17.61
2022-08-21T20:43:26.682Z,17.69
2022-08-21T20:45:54.704Z,17.78
2022-08-21T20:48:31.839Z,17.78
2022-08-21T20:51:25.892Z,17.80
2022-08-21T20:53:59.149Z,17.84
2022-08-21T20:56:32.738Z,17.86
2022-08-21T20:59:07.429Z,17.89
2022-08-21T21:01:34.293Z,17.91
2022-08-21T21:04:19.599Z,17.93
2022-08-21T21:06:50.172Z,17.94
2022-08-21T21:09:23.111Z,17.90
2022-08-21T21:11:57.822Z,17.91
2022-08-21T21:14:30.193Z,17.92
2022-08-21T21:16:59.229Z,17.88
2022-08-21T21:19:41.600Z,17.87
2022-08-21T21:22:11.284Z,17.94
2022-08-21T21:24:51.238Z,17.87
2022-08-21T21:27:38.944Z,17.88
2022-08-21T21:30:05.375Z,17.86
2022-08-21T21:32:31.777Z,17.74
2022-08-21T21:34:58.311Z,17.74
2022-08-21T21:37:25.918Z,17.77
2022-08-21T21:40:03.420Z,17.80
2022-08-21T21:42:49.430Z,17.75
2022-08-21T21:45:15.700Z,17.78
2022-08-21T21:47:53.167Z,17.75
2022-08-21T21:50:42.842Z,17.74
2022-08-21T21:53:22.271Z,17.72
2022-08-21T21:56:00.907Z,17.70
2022-08-21T21:58:50.079Z,17.73
2022-08-21T22:01:24.706Z,17.75
2022-08-21T22:04:03.717Z,17.73
2022-08-21T22:06:35.852Z,17.70
2022-08-21T22:09:02.612Z,17.68
2022-08-21T22:11:29.496Z,17.71
2022-08-21T22:14:15.037Z,17.68
2022-08-21T22:16:43.769Z,17.64
2022-08-21T22:19:14.677Z,17.60
2022-08-21T22:21:45.302Z,17.61
2022-08-21T22:24:16.856Z,17.62
2022-08-21T22:26:48.191Z,17.58
2022-08-21T22:29:19.816Z,17.54
2022-08-21T22:32:01.021Z,17.50
2022-08-21T22:34:31.978Z,17.44
2022-08-21T22:37:02.279Z,17.37
2022-08-21T22:39:35.929Z,17.35
2022-08-21T22:42:07.147Z,17.27
2022-08-21T22:44:47.505Z,17.26
2022-08-21T22:47:19.426Z,17.23
2022-08-21T22:49:48.614Z,17.18
2022-08-21T22:52:18.501Z,17.18
2022-08-21T22:54:45.387Z,17.16
2022-08-21T22:57:32.568Z,17.13
2022-08-21T22:59:58.845Z,17.04
2022-08-21T23:02:30.280Z,17.01
2022-08-21T23:04:58.122Z,16.99
2022-08-21T23:07:43.554Z,16.90
2022-08-21T23:10:33.925Z,16.86
2022-08-21T23:13:09.326Z,16.78
2022-08-21T23:15:45.353Z,16.72
2022-08-21T23:18:18.047Z,16.74
2022-08-21T23:21:10.702Z,16.74
2022-08-21T23:23:59.864Z,16.72
2022-08-21T23:27:03.119Z,16.65
2022-08-21T23:29:42.383Z,16.69
2022-08-21T23:32:25.092Z,16.66
2022-08-21T23:35:04.240Z,16.61
2022-08-21T23:37:51.343Z,16.54
2022-08-21T23:40:36.697Z,16.53
2022-08-21T23:43:16.238Z,16.52
2022-08-21T23:45:55.985Z,16.49
2022-08-21T23:48:29.435Z,16.41
2022-08-21T23:51:03.337Z,16.32
2022-08-21T23:53:38.434Z,16.32
2022-08-21T23:56:13.651Z,16.20
2022-08-21T23:58:58.780Z,16.24
